createdAt,value
2022-10-26T00:01:08.707Z,68.01
2022-10-26T00:03:42.517Z,68.08
2022-10-26T00:06:19.541Z,68.07
2022-10-26T00:08:52.164Z,68.12
2022-10-26T00:11:24.748Z,67.86
2022-10-26T00:13:56.726Z,68.09
2022-10-26T00:16:29.475Z,68.11
2022-10-26T00:19:01.630Z,68.26
2022-10-26T00:21:33.612Z,67.96
2022-10-26T00:24:05.845Z,68.16
2022-10-26T00:26:37.836Z,68.07
2022-10-26T00:29:11.524Z,68.18
2022-10-26T00:31:43.393Z,68.40
2022-10-26T00:34:15.310Z,68.70
2022-10-26T00:36:47.509Z,69.04
2022-10-26T00:39:20.706Z,69.44
2022-10-26T00:41:52.732Z,69.52
2022-10-26T00:44:51.522Z,69.79
2022-10-26T00:47:26.450Z,70.01
2022-10-26T00:50:01.131Z,69.92
2022-10-26T00:52:33.744Z,70.37
2022-10-26T00:55:07.395Z,70.20
2022-10-26T00:57:40.726Z,70.41
2022-10-26T01:00:12.829Z,70.53
2022-10-26T01:02:47.406Z,70.33
2022-10-26T01:05:20.414Z,70.17
2022-10-26T01:07:52.847Z,70.29
2022-10-26T01:10:26.238Z,70.24
2022-10-26T01:13:00.461Z,70.17
2022-10-26T01:15:41.869Z,69.91
2022-10-26T01:18:22.446Z,69.96
2022-10-26T01:21:16.337Z,69.27
2022-10-26T01:23:51.180Z,68.68
2022-10-26T01:26:31.671Z,68.57
2022-10-26T01:29:12.069Z,68.52
2022-10-26T01:31:46.861Z,68.43
2022-10-26T01:34:24.751Z,68.49
2022-10-26T01:37:02.315Z,68.66
2022-10-26T01:39:39.869Z,68.48
2022-10-26T01:42:14.530Z,68.65
2022-10-26T01:44:55.218Z,68.63
2022-10-26T01:47:28.708Z,68.80
2022-10-26T01:50:02.084Z,68.83
2022-10-26T01:52:34.473Z,68.70
2022-10-26T01:55:09.510Z,68.59
2022-10-26T01:57:41.940Z,68.30
2022-10-26T02:00:14.802Z,68.21
2022-10-26T02:03:04.761Z,68.35
2022-10-26T02:05:51.294Z,68.56
2022-10-26T02:08:31.888Z,68.78
2022-10-26T02:11:09.332Z,68.98
2022-10-26T02:13:49.852Z,69.40
2022-10-26T02:16:37.435Z,69.76
2022-10-26T02:19:15.294Z,70.17
2022-10-26T02:21:51.423Z,70.33
2022-10-26T02:24:26.182Z,70.59
2022-10-26T02:26:59.791Z,70.70
2022-10-26T02:29:34.410Z,71.26
2022-10-26T02:32:09.343Z,71.74
2022-10-26T02:34:43.536Z,71.99
2022-10-26T02:37:16.581Z,72.24
2022-10-26T02:39:51.150Z,72.06
2022-10-26T02:42:25.489Z,72.50
2022-10-26T02:45:03.460Z,72.54
2022-10-26T02:47:35.690Z,72.70
2022-10-26T02:50:08.018Z,73.11
2022-10-26T02:52:57.755Z,73.22
2022-10-26T02:55:32.671Z,73.13
2022-10-26T02:58:07.521Z,72.89
2022-10-26T03:00:40.079Z,72.72
2022-10-26T03:03:11.984Z,72.27
2022-10-26T03:05:44.578Z,72.25
2022-10-26T03:08:16.917Z,71.71
2022-10-26T03:10:48.861Z,71.83
2022-10-26T03:13:20.900Z,71.51
2022-10-26T03:15:54.457Z,71.23
2022-10-26T03:18:26.893Z,71.07
2022-10-26T03:20:58.882Z,70.77
2022-10-26T03:23:30.873Z,70.31
2022-10-26T03:26:02.963Z,69.91
2022-10-26T03:28:35.189Z,69.98
2022-10-26T03:31:07.353Z,69.79
2022-10-26T03:33:39.302Z,69.56
2022-10-26T03:36:11.447Z,69.58
2022-10-26T03:38:43.278Z,69.27
2022-10-26T03:41:15.576Z,69.09
2022-10-26T03:43:48.883Z,68.80
2022-10-26T03:46:20.809Z,68.61
2022-10-26T03:48:52.821Z,68.53
2022-10-26T03:51:24.918Z,68.61
2022-10-26T03:53:56.856Z,68.31
2022-10-26T03:56:29.074Z,68.12
2022-10-26T03:59:01.290Z,68.19
2022-10-26T04:01:33.429Z,68.40
2022-10-26T04:04:05.566Z,68.03
2022-10-26T04:06:37.570Z,67.73
2022-10-26T04:09:09.705Z,67.86
2022-10-26T04:11:42.011Z,68.02
2022-10-26T04:14:14.283Z,68.06
2022-10-26T04:16:46.234Z,67.95
2022-10-26T04:19:18.470Z,67.80
2022-10-26T04:21:54.795Z,67.86
2022-10-26T04:24:26.631Z,67.87
2022-10-26T04:26:58.741Z,67.65
2022-10-26T04:29:31.755Z,67.45
2022-10-26T04:32:04.106Z,67.30
2022-10-26T04:34:36.176Z,67.39
2022-10-26T04:37:09.290Z,67.46
2022-10-26T04:39:41.226Z,66.98
2022-10-26T04:42:14.299Z,66.34
2022-10-26T04:44:46.588Z,66.22
2022-10-26T04:47:18.944Z,66.36
2022-10-26T04:49:50.882Z,65.99
2022-10-26T04:52:22.827Z,65.63
2022-10-26T04:54:54.883Z,65.53
2022-10-26T04:57:27.044Z,65.01
2022-10-26T04:59:59.351Z,64.99
2022-10-26T05:02:33.209Z,64.76
2022-10-26T05:05:07.821Z,64.54
2022-10-26T05:07:39.186Z,64.49
2022-10-26T05:10:12.076Z,64.29
2022-10-26T05:12:44.098Z,64.39
2022-10-26T05:15:16.489Z,64.26
2022-10-26T05:17:49.471Z,64.13
2022-10-26T05:20:21.832Z,64.05
2022-10-26T05:22:58.799Z,63.90
2022-10-26T05:25:32.729Z,63.73
2022-10-26T05:28:09.706Z,63.04
2022-10-26T05:30:43.090Z,63.28
2022-10-26T05:33:16.335Z,63.15
2022-10-26T05:35:48.738Z,63.05
2022-10-26T05:38:21.511Z,62.76
2022-10-26T05:40:55.957Z,62.92
2022-10-26T05:43:28.805Z,62.91
2022-10-26T05:46:02.277Z,62.73
2022-10-26T05:48:34.878Z,62.86
2022-10-26T05:51:07.417Z,62.85
2022-10-26T05:53:40.189Z,63.14
2022-10-26T05:56:18.034Z,63.12
2022-10-26T05:58:50.718Z,62.47
2022-10-26T06:01:40.921Z,62.67
2022-10-26T06:04:21.505Z,61.75
2022-10-26T06:06:55.582Z,61.49
2022-10-26T06:09:27.999Z,61.20
2022-10-26T06:12:01.993Z,61.22
2022-10-26T06:14:34.577Z,61.33
2022-10-26T06:17:25.922Z,60.85
2022-10-26T06:20:08.765Z,60.99
2022-10-26T06:22:52.745Z,59.79
2022-10-26T06:25:30.682Z,59.96
2022-10-26T06:28:18.423Z,59.46
2022-10-26T06:30:50.622Z,59.46
2022-10-26T06:33:31.052Z,59.05
2022-10-26T06:36:23.746Z,58.70
2022-10-26T06:39:07.564Z,58.19
2022-10-26T06:41:40.057Z,57.56
2022-10-26T06:44:16.167Z,56.86
2022-10-26T06:46:51.245Z,56.94
2022-10-26T06:49:47.065Z,56.43
2022-10-26T06:52:37.323Z,56.24
2022-10-26T06:55:17.439Z,56.09
2022-10-26T06:57:51.061Z,55.67
2022-10-26T07:00:26.797Z,54.99
2022-10-26T07:03:00.327Z,53.67
2022-10-26T07:05:32.292Z,52.80
2022-10-26T07:08:04.484Z,52.47
2022-10-26T07:10:38.385Z,52.20
2022-10-26T07:13:11.580Z,52.17
2022-10-26T07:15:44.469Z,52.10
2022-10-26T07:18:17.221Z,52.13
2022-10-26T07:20:49.386Z,52.34
2022-10-26T07:23:22.988Z,52.27
2022-10-26T07:25:55.258Z,52.01
2022-10-26T07:28:27.516Z,51.89
2022-10-26T07:31:00.825Z,51.39
2022-10-26T07:33:35.821Z,51.45
2022-10-26T07:36:08.729Z,51.23
2022-10-26T07:38:41.632Z,51.20
2022-10-26T07:41:14.545Z,50.87
2022-10-26T07:43:46.620Z,50.96
2022-10-26T07:46:18.840Z,51.12
2022-10-26T07:48:50.851Z,50.91
2022-10-26T07:51:22.913Z,49.88
2022-10-26T07:53:54.996Z,49.89
2022-10-26T07:56:27.260Z,49.85
2022-10-26T07:58:59.359Z,49.34
2022-10-26T08:01:31.795Z,49.25
2022-10-26T08:04:04.168Z,48.91
2022-10-26T08:06:36.690Z,48.77
2022-10-26T08:09:09.623Z,48.75
2022-10-26T08:11:41.601Z,48.55
2022-10-26T08:14:13.578Z,48.67
2022-10-26T08:16:46.367Z,48.82
2022-10-26T08:19:18.357Z,48.90
2022-10-26T08:21:50.448Z,48.26
2022-10-26T08:24:22.482Z,48.53
2022-10-26T08:26:54.729Z,48.84
2022-10-26T08:29:27.116Z,48.53
2022-10-26T08:31:59.215Z,48.10
2022-10-26T08:34:31.611Z,47.80
2022-10-26T08:37:03.862Z,48.37
2022-10-26T08:39:36.863Z,48.04
2022-10-26T08:42:20.445Z,48.04
2022-10-26T08:44:57.012Z,48.12
2022-10-26T08:47:32.151Z,48.11
2022-10-26T08:50:12.909Z,48.24
2022-10-26T08:53:07.288Z,48.08
2022-10-26T08:56:13.890Z,48.14
2022-10-26T08:59:01.218Z,48.34
2022-10-26T09:01:34.691Z,48.21
2022-10-26T09:04:09.788Z,47.24
2022-10-26T09:06:59.512Z,47.46
2022-10-26T09:09:50.762Z,47.56
2022-10-26T09:12:34.621Z,47.73
2022-10-26T09:15:21.198Z,47.46
2022-10-26T09:18:04.414Z,47.47
2022-10-26T09:20:55.949Z,47.71
2022-10-26T09:23:42.402Z,47.30
2022-10-26T09:26:17.643Z,47.39
2022-10-26T09:28:50.558Z,46.93
2022-10-26T09:31:24.552Z,45.83
2022-10-26T09:33:56.779Z,45.75
2022-10-26T09:36:29.320Z,45.93
2022-10-26T09:39:22.371Z,45.86
2022-10-26T09:42:00.034Z,45.64
2022-10-26T09:44:43.454Z,45.60
2022-10-26T09:47:33.117Z,45.91
2022-10-26T09:50:17.450Z,46.12
2022-10-26T09:52:49.809Z,46.37
2022-10-26T09:55:23.079Z,46.46
2022-10-26T09:58:00.853Z,46.37
2022-10-26T10:03:22.706Z,46.78
2022-10-26T10:05:57.235Z,46.85
2022-10-26T10:08:29.214Z,46.86
2022-10-26T10:11:03.708Z,46.64
2022-10-26T10:13:39.400Z,46.70
2022-10-26T10:16:25.685Z,47.05
2022-10-26T10:19:00.371Z,47.34
2022-10-26T10:21:44.303Z,48.21
2022-10-26T10:24:31.166Z,48.02
2022-10-26T10:27:06.085Z,47.62
2022-10-26T10:29:43.340Z,47.72
2022-10-26T10:32:24.029Z,47.77
2022-10-26T10:34:57.767Z,48.26
2022-10-26T10:37:38.817Z,47.78
2022-10-26T10:40:26.003Z,47.71
2022-10-26T10:43:09.922Z,47.82
2022-10-26T10:45:42.269Z,47.69
2022-10-26T10:48:17.044Z,47.86
2022-10-26T10:51:03.813Z,48.03
2022-10-26T10:53:53.275Z,47.89
2022-10-26T10:56:30.776Z,47.81
2022-10-26T10:59:24.999Z,47.63
2022-10-26T11:02:00.311Z,47.41
2022-10-26T11:05:08.029Z,47.40
2022-10-26T11:07:46.023Z,47.11
2022-10-26T11:10:20.991Z,47.59
2022-10-26T11:12:58.777Z,46.91
2022-10-26T11:15:34.297Z,46.92
2022-10-26T11:18:11.716Z,46.87
2022-10-26T11:20:46.970Z,46.84
2022-10-26T11:23:45.999Z,47.13
2022-10-26T11:26:20.725Z,47.35
2022-10-26T11:28:55.635Z,47.14
2022-10-26T11:31:47.073Z,47.36
2022-10-26T11:34:27.769Z,47.57
2022-10-26T11:37:02.663Z,47.60
2022-10-26T11:39:49.355Z,47.56
2022-10-26T11:42:34.893Z,47.78
2022-10-26T11:45:18.722Z,48.05
2022-10-26T11:48:10.016Z,48.13
2022-10-26T11:50:45.108Z,48.19
2022-10-26T11:53:29.245Z,48.26
2022-10-26T11:56:03.161Z,48.29
2022-10-26T11:58:35.544Z,48.16
2022-10-26T12:01:13.193Z,48.19
2022-10-26T12:03:51.209Z,48.47
2022-10-26T12:06:25.950Z,48.53
2022-10-26T12:09:15.930Z,47.89
2022-10-26T12:11:51.370Z,47.79
2022-10-26T12:14:44.596Z,47.40
2022-10-26T12:17:22.178Z,47.75
2022-10-26T12:20:15.066Z,48.05
2022-10-26T12:22:48.169Z,48.28
2022-10-26T12:25:22.905Z,48.43
2022-10-26T12:27:55.535Z,48.73
2022-10-26T12:30:30.125Z,48.59
2022-10-26T12:33:07.584Z,49.01
2022-10-26T12:35:46.487Z,49.10
2022-10-26T12:38:27.943Z,49.19
2022-10-26T12:41:22.562Z,49.22
2022-10-26T12:43:57.355Z,49.99
2022-10-26T12:46:32.277Z,50.17
2022-10-26T12:49:04.442Z,50.00
2022-10-26T12:51:40.028Z,50.65
2022-10-26T12:54:15.255Z,50.93
2022-10-26T12:57:12.937Z,50.70
2022-10-26T12:59:50.806Z,50.12
2022-10-26T13:02:46.498Z,50.15
2022-10-26T13:05:39.275Z,50.31
2022-10-26T13:08:13.154Z,50.24
2022-10-26T13:11:00.445Z,50.30
2022-10-26T13:13:34.324Z,50.50
2022-10-26T13:16:06.706Z,50.96
2022-10-26T13:18:44.222Z,51.16
2022-10-26T13:21:19.196Z,51.71
2022-10-26T13:24:01.080Z,51.94
2022-10-26T13:26:34.210Z,52.57
2022-10-26T13:29:06.475Z,52.71
2022-10-26T13:31:44.437Z,52.52
2022-10-26T13:34:25.238Z,52.98
2022-10-26T13:37:06.203Z,53.02
2022-10-26T13:39:43.362Z,53.03
2022-10-26T13:42:18.749Z,53.46
2022-10-26T13:45:02.424Z,53.95
2022-10-26T13:48:10.469Z,54.30
2022-10-26T13:51:00.701Z,54.54
2022-10-26T13:53:44.557Z,54.63
2022-10-26T13:56:36.179Z,55.30
2022-10-26T13:59:13.718Z,55.72
2022-10-26T14:01:45.978Z,55.84
2022-10-26T14:04:19.515Z,56.00
2022-10-26T14:06:54.282Z,56.65
2022-10-26T14:09:28.617Z,57.07
2022-10-26T14:12:03.963Z,57.39
2022-10-26T14:14:40.029Z,57.72
2022-10-26T14:17:23.549Z,58.14
2022-10-26T14:19:55.742Z,58.75
2022-10-26T14:22:30.214Z,59.14
2022-10-26T14:25:02.901Z,59.59
2022-10-26T14:27:38.003Z,59.86
2022-10-26T14:30:27.665Z,60.32
2022-10-26T14:33:00.358Z,60.87
2022-10-26T14:35:39.847Z,60.64
2022-10-26T14:38:20.818Z,61.10
2022-10-26T14:40:52.700Z,61.70
2022-10-26T14:43:26.857Z,61.54
2022-10-26T14:45:58.818Z,62.00
2022-10-26T14:48:36.593Z,62.02
2022-10-26T14:51:11.835Z,62.34
2022-10-26T14:53:46.714Z,62.77
2022-10-26T14:56:28.861Z,62.69
2022-10-26T14:59:02.720Z,63.07
2022-10-26T15:01:36.852Z,63.22
2022-10-26T15:04:10.688Z,63.13
2022-10-26T15:06:45.746Z,63.22
2022-10-26T15:09:35.617Z,63.29
2022-10-26T15:12:09.821Z,63.65
2022-10-26T15:14:42.773Z,64.43
2022-10-26T15:17:23.796Z,62.97
2022-10-26T15:19:57.964Z,64.74
2022-10-26T15:22:32.324Z,63.75
2022-10-26T15:25:06.854Z,63.54
2022-10-26T15:27:39.043Z,63.56
2022-10-26T15:30:14.191Z,63.91
2022-10-26T15:32:46.759Z,63.66
2022-10-26T15:35:27.631Z,68.83
2022-10-26T15:38:01.489Z,66.58
2022-10-26T15:40:34.145Z,65.62
2022-10-26T15:43:06.389Z,63.80
2022-10-26T15:45:41.249Z,64.16
2022-10-26T15:48:29.417Z,63.24
2022-10-26T15:51:02.090Z,61.92
2022-10-26T15:53:34.154Z,61.80
2022-10-26T15:56:09.272Z,61.21
2022-10-26T15:58:41.689Z,63.95
2022-10-26T16:01:23.522Z,61.56
2022-10-26T16:03:56.338Z,60.83
2022-10-26T16:06:31.503Z,61.85
2022-10-26T16:09:05.824Z,62.31
2022-10-26T16:11:38.440Z,60.77
2022-10-26T16:14:13.496Z,60.53
2022-10-26T16:16:45.723Z,60.27
2022-10-26T16:19:30.287Z,60.46
2022-10-26T16:21:55.443Z,60.85
2022-10-26T16:24:28.655Z,61.34
2022-10-26T16:27:00.772Z,61.72
2022-10-26T16:29:33.069Z,62.25
2022-10-26T16:32:05.386Z,62.09
2022-10-26T16:34:37.522Z,62.50
2022-10-26T16:37:09.401Z,63.68
2022-10-26T16:39:41.448Z,63.35
2022-10-26T16:42:13.849Z,63.91
2022-10-26T16:44:46.050Z,62.89
2022-10-26T16:49:52.191Z,63.09
2022-10-26T16:52:24.080Z,62.50
2022-10-26T16:54:56.331Z,63.38
2022-10-26T16:57:28.759Z,63.88
2022-10-26T17:00:00.767Z,63.95
2022-10-26T17:02:33.373Z,64.27
2022-10-26T17:05:07.352Z,64.61
2022-10-26T17:07:39.512Z,64.47
2022-10-26T17:10:11.873Z,64.14
2022-10-26T17:12:44.388Z,64.12
2022-10-26T17:15:19.709Z,64.01
2022-10-26T17:17:50.511Z,63.97
2022-10-26T17:20:22.483Z,64.21
2022-10-26T17:22:54.497Z,64.51
2022-10-26T17:25:26.979Z,64.74
2022-10-26T17:27:59.702Z,64.58
2022-10-26T17:30:34.241Z,64.58
2022-10-26T17:33:06.936Z,64.49
2022-10-26T17:35:38.843Z,64.35
2022-10-26T17:38:10.759Z,64.64
2022-10-26T17:40:42.839Z,64.69
2022-10-26T17:43:14.967Z,64.74
2022-10-26T17:45:47.913Z,64.53
2022-10-26T17:48:19.833Z,64.54
2022-10-26T17:50:53.364Z,64.62
2022-10-26T17:53:25.624Z,64.45
2022-10-26T17:56:09.115Z,64.43
2022-10-26T17:58:41.165Z,64.40
2022-10-26T18:01:14.869Z,64.55
2022-10-26T18:03:47.338Z,64.66
2022-10-26T18:06:19.674Z,64.61
2022-10-26T18:08:51.929Z,64.79
2022-10-26T18:11:27.378Z,64.78
2022-10-26T18:13:59.741Z,64.86
2022-10-26T18:16:31.579Z,65.00
2022-10-26T18:19:05.691Z,64.69
2022-10-26T18:21:40.698Z,65.13
2022-10-26T18:24:12.872Z,64.80
2022-10-26T18:26:44.950Z,64.96
2022-10-26T18:29:17.093Z,64.69
2022-10-26T18:31:49.477Z,64.83
2022-10-26T18:34:22.171Z,64.55
2022-10-26T18:36:55.461Z,64.69
2022-10-26T18:39:27.294Z,64.83
2022-10-26T18:41:59.377Z,65.04
2022-10-26T18:44:31.437Z,65.25
2022-10-26T18:47:03.560Z,65.11
2022-10-26T18:49:35.713Z,65.16
2022-10-26T18:52:07.824Z,64.89
2022-10-26T18:54:39.704Z,64.47
2022-10-26T18:57:11.602Z,64.62
2022-10-26T18:59:44.010Z,64.75
2022-10-26T19:02:16.597Z,64.65
2022-10-26T19:04:48.683Z,64.80
2022-10-26T19:07:20.710Z,64.73
2022-10-26T19:09:52.941Z,64.63
2022-10-26T19:12:24.873Z,64.56
2022-10-26T19:14:56.965Z,64.32
2022-10-26T19:17:33.395Z,64.34
2022-10-26T19:20:05.941Z,64.42
2022-10-26T19:22:37.894Z,64.09
2022-10-26T19:25:10.654Z,63.86
2022-10-26T19:27:42.441Z,63.71
2022-10-26T19:30:15.540Z,63.45
2022-10-26T19:32:47.709Z,63.05
2022-10-26T19:35:19.684Z,62.90
2022-10-26T19:37:51.950Z,63.09
2022-10-26T19:40:24.170Z,62.90
2022-10-26T19:42:56.206Z,62.93
2022-10-26T19:45:28.136Z,62.69
2022-10-26T19:48:00.327Z,62.54
2022-10-26T19:50:32.337Z,62.47
2022-10-26T19:53:04.505Z,62.25
2022-10-26T19:55:36.481Z,62.09
2022-10-26T19:58:08.538Z,62.18
2022-10-26T20:00:41.424Z,61.88
2022-10-26T20:03:13.709Z,61.47
2022-10-26T20:05:45.609Z,61.80
2022-10-26T20:08:19.659Z,61.64
2022-10-26T20:10:53.101Z,61.18
2022-10-26T20:13:25.448Z,61.18
2022-10-26T20:15:57.476Z,61.44
2022-10-26T20:18:30.234Z,61.24
2022-10-26T20:21:02.202Z,61.24
2022-10-26T20:23:34.205Z,61.03
2022-10-26T20:28:38.403Z,60.85
2022-10-26T20:31:10.345Z,60.92
2022-10-26T20:33:42.460Z,60.42
2022-10-26T20:36:15.297Z,60.61
2022-10-26T20:38:47.632Z,60.81
2022-10-26T20:41:20.005Z,60.75
2022-10-26T20:43:54.478Z,60.81
2022-10-26T20:46:26.715Z,60.58
2022-10-26T20:48:58.668Z,60.74
2022-10-26T20:52:02.721Z,60.59
2022-10-26T20:54:33.305Z,60.54
2022-10-26T20:57:08.469Z,60.57
2022-10-26T20:59:43.311Z,60.47
2022-10-26T21:02:16.870Z,60.32
2022-10-26T21:04:49.025Z,60.52
2022-10-26T21:07:21.340Z,60.53
2022-10-26T21:09:53.708Z,60.69
2022-10-26T21:12:25.838Z,60.71
2022-10-26T21:14:57.867Z,60.73
2022-10-26T21:17:29.991Z,60.58
2022-10-26T21:20:03.299Z,60.61
2022-10-26T21:22:36.053Z,60.52
2022-10-26T21:25:08.309Z,60.70
2022-10-26T21:27:41.189Z,60.71
2022-10-26T21:30:14.200Z,60.72
2022-10-26T21:32:46.257Z,60.47
2022-10-26T21:35:18.495Z,60.48
2022-10-26T21:37:56.208Z,60.49
2022-10-26T21:40:27.472Z,60.38
2022-10-26T21:42:59.189Z,60.60
2022-10-26T21:45:31.667Z,60.12
2022-10-26T21:48:03.592Z,60.38
2022-10-26T21:50:35.617Z,60.25
2022-10-26T21:53:07.640Z,60.15
2022-10-26T21:55:39.486Z,60.20
2022-10-26T21:58:11.990Z,60.31
2022-10-26T22:00:43.969Z,60.29
2022-10-26T22:03:17.160Z,60.16
2022-10-26T22:05:55.205Z,60.31
2022-10-26T22:08:27.189Z,60.30
2022-10-26T22:10:59.704Z,60.27
2022-10-26T22:13:31.607Z,60.27
2022-10-26T22:16:05.986Z,60.29
2022-10-26T22:18:37.779Z,60.25
2022-10-26T22:21:10.226Z,60.47
2022-10-26T22:23:43.452Z,60.04
2022-10-26T22:26:17.678Z,60.12
2022-10-26T22:28:51.876Z,60.27
2022-10-26T22:34:09.829Z,60.04
2022-10-26T22:36:42.024Z,60.28
2022-10-26T22:39:14.062Z,60.10
2022-10-26T22:41:45.844Z,60.30
2022-10-26T22:44:17.968Z,60.30
2022-10-26T22:46:49.913Z,60.29
2022-10-26T22:49:22.027Z,60.22
2022-10-26T22:51:54.266Z,60.31
2022-10-26T22:54:26.548Z,60.49
2022-10-26T22:56:58.588Z,60.55
2022-10-26T22:59:30.545Z,60.48
2022-10-26T23:02:02.661Z,60.43
2022-10-26T23:04:36.305Z,60.51
2022-10-26T23:07:08.489Z,60.62
2022-10-26T23:09:40.404Z,60.65
2022-10-26T23:12:12.469Z,60.56
2022-10-26T23:14:44.411Z,60.68
2022-10-26T23:17:16.408Z,60.77
2022-10-26T23:19:48.415Z,60.79
2022-10-26T23:22:20.283Z,61.00
2022-10-26T23:24:52.182Z,61.23
2022-10-26T23:27:24.247Z,61.44
2022-10-26T23:29:56.250Z,61.65
2022-10-26T23:32:28.428Z,61.90
2022-10-26T23:35:00.345Z,62.08
2022-10-26T23:37:32.644Z,62.42
2022-10-26T23:40:04.972Z,62.47
2022-10-26T23:42:36.975Z,62.70
2022-10-26T23:45:09.166Z,62.63
2022-10-26T23:47:41.449Z,62.71
2022-10-26T23:50:13.382Z,62.54
2022-10-26T23:52:50.321Z,62.50
2022-10-26T23:55:22.261Z,62.58
2022-10-26T23:57:54.421Z,62.67
